createdAt,value
2023-04-06T00:02:24.897Z,18.84
2023-04-06T00:04:57.882Z,18.86
2023-04-06T00:07:28.662Z,18.86
2023-04-06T00:09:59.121Z,18.88
2023-04-06T00:12:29.738Z,18.90
2023-04-06T00:15:00.255Z,18.90
2023-04-06T00:17:30.930Z,18.92
2023-04-06T00:20:01.408Z,18.88
2023-04-06T00:22:31.865Z,18.89
2023-04-06T00:25:02.262Z,18.87
2023-04-06T00:27:33.422Z,18.88
2023-04-06T00:30:03.891Z,18.88
2023-04-06T00:32:34.796Z,18.89
2023-04-06T00:35:09.209Z,18.90
2023-04-06T00:37:39.717Z,18.92
2023-04-06T00:40:10.859Z,18.92
2023-04-06T00:42:42.470Z,18.97
2023-04-06T00:45:14.275Z,18.95
2023-04-06T00:47:44.965Z,18.95
2023-04-06T00:50:15.603Z,18.96
2023-04-06T00:52:46.097Z,18.96
2023-04-06T00:55:16.934Z,19.00
2023-04-06T00:57:47.432Z,19.00
2023-04-06T01:00:19.533Z,18.99
2023-04-06T01:02:52.439Z,19.02
2023-04-06T01:05:26.508Z,19.02
2023-04-06T01:08:00.608Z,19.01
2023-04-06T01:10:33.033Z,19.06
2023-04-06T01:13:14.254Z,19.08
2023-04-06T01:15:57.648Z,19.07
2023-04-06T01:18:38.693Z,19.06
2023-04-06T01:21:35.602Z,19.09
2023-04-06T01:24:23.479Z,19.11
2023-04-06T01:27:03.732Z,19.11
2023-04-06T01:29:57.418Z,19.12
2023-04-06T01:33:06.496Z,19.15
2023-04-06T01:35:59.172Z,19.13
2023-04-06T01:38:30.143Z,19.19
2023-04-06T01:41:00.794Z,19.16
2023-04-06T01:43:36.504Z,19.21
2023-04-06T01:46:12.647Z,19.20
2023-04-06T01:48:46.201Z,19.20
2023-04-06T01:51:31.399Z,19.20
2023-04-06T01:54:05.273Z,19.22
2023-04-06T01:56:56.674Z,19.22
2023-04-06T01:59:56.986Z,19.21
2023-04-06T02:02:43.147Z,19.22
2023-04-06T02:05:20.963Z,19.22
2023-04-06T02:07:54.067Z,19.23
2023-04-06T02:10:33.863Z,19.25
2023-04-06T02:13:10.800Z,19.28
2023-04-06T02:15:43.147Z,19.31
2023-04-06T02:18:17.816Z,19.30
2023-04-06T02:20:48.330Z,19.31
2023-04-06T02:23:18.877Z,19.31
2023-04-06T02:26:06.155Z,19.30
2023-04-06T02:28:39.339Z,19.33
2023-04-06T02:31:09.885Z,19.35
2023-04-06T02:33:41.440Z,19.34
2023-04-06T02:36:13.341Z,19.36
2023-04-06T02:38:44.903Z,19.35
2023-04-06T02:41:15.449Z,19.39
2023-04-06T02:43:46.090Z,19.40
2023-04-06T02:46:24.732Z,19.40
2023-04-06T02:48:55.634Z,19.40
2023-04-06T02:51:26.267Z,19.43
2023-04-06T02:54:00.485Z,19.43
2023-04-06T02:56:31.952Z,19.48
2023-04-06T02:59:02.841Z,19.44
2023-04-06T03:01:36.105Z,19.45
2023-04-06T03:04:08.961Z,19.47
2023-04-06T03:06:39.386Z,19.44
2023-04-06T03:09:20.582Z,19.46
2023-04-06T03:11:51.038Z,19.53
2023-04-06T03:14:24.301Z,19.52
2023-04-06T03:16:54.829Z,19.54
2023-04-06T03:19:26.390Z,19.53
2023-04-06T03:22:00.161Z,19.53
2023-04-06T03:24:31.548Z,19.49
2023-04-06T03:27:02.854Z,19.55
2023-04-06T03:29:34.317Z,19.51
2023-04-06T03:32:04.968Z,19.53
2023-04-06T03:34:42.945Z,19.51
2023-04-06T03:37:13.542Z,19.56
2023-04-06T03:39:50.064Z,19.58
2023-04-06T03:42:28.198Z,19.57
2023-04-06T03:45:06.785Z,19.57
2023-04-06T03:47:38.677Z,19.57
2023-04-06T03:50:11.671Z,19.57
2023-04-06T03:52:42.869Z,19.62
2023-04-06T03:55:13.498Z,19.55
2023-04-06T03:57:44.863Z,19.56
2023-04-06T04:00:16.395Z,19.62
2023-04-06T04:02:47.115Z,19.60
2023-04-06T04:05:17.996Z,19.60
2023-04-06T04:07:48.513Z,19.66
2023-04-06T04:10:19.534Z,19.67
2023-04-06T04:12:50.069Z,19.63
2023-04-06T04:15:20.564Z,19.66
2023-04-06T04:17:53.094Z,19.73
2023-04-06T04:20:24.099Z,19.66
2023-04-06T04:22:54.532Z,19.63
2023-04-06T04:25:26.609Z,19.62
2023-04-06T04:27:57.412Z,19.66
2023-04-06T04:30:28.244Z,19.65
2023-04-06T04:32:58.920Z,19.69
2023-04-06T04:35:30.300Z,19.72
2023-04-06T04:38:01.151Z,19.63
2023-04-06T04:40:32.042Z,19.68
2023-04-06T04:43:11.870Z,19.80
2023-04-06T04:45:42.767Z,19.75
2023-04-06T04:48:23.162Z,19.72
2023-04-06T04:50:58.534Z,19.73
2023-04-06T04:53:35.171Z,19.77
2023-04-06T04:56:17.580Z,19.71
2023-04-06T04:58:49.809Z,19.72
2023-04-06T05:01:21.136Z,19.70
2023-04-06T05:03:52.129Z,19.63
2023-04-06T05:06:22.978Z,19.62
2023-04-06T05:08:54.274Z,19.61
2023-04-06T05:11:25.852Z,19.70
2023-04-06T05:14:02.874Z,19.62
2023-04-06T05:16:33.343Z,19.64
2023-04-06T05:19:04.022Z,19.57
2023-04-06T05:21:42.270Z,19.60
2023-04-06T05:24:13.162Z,19.63
2023-04-06T05:26:45.352Z,19.60
2023-04-06T05:29:23.740Z,19.57
2023-04-06T05:31:54.796Z,19.51
2023-04-06T05:34:25.461Z,19.41
2023-04-06T05:36:55.888Z,19.34
2023-04-06T05:39:28.924Z,19.27
2023-04-06T05:41:59.422Z,19.19
2023-04-06T05:44:52.318Z,19.15
2023-04-06T05:47:23.862Z,19.10
2023-04-06T05:50:02.130Z,19.09
2023-04-06T05:52:39.123Z,19.06
2023-04-06T05:55:10.741Z,19.02
2023-04-06T05:57:44.542Z,18.98
2023-04-06T06:00:19.145Z,18.96
2023-04-06T06:03:00.084Z,18.91
2023-04-06T06:05:32.777Z,18.96
2023-04-06T06:08:11.356Z,18.93
2023-04-06T06:10:42.915Z,18.93
2023-04-06T06:13:15.529Z,18.92
2023-04-06T06:15:46.523Z,18.91
2023-04-06T06:18:19.132Z,18.92
2023-04-06T06:20:51.413Z,18.90
2023-04-06T06:23:22.059Z,18.89
2023-04-06T06:25:52.840Z,18.87
2023-04-06T06:28:25.489Z,18.84
2023-04-06T06:30:56.153Z,18.82
2023-04-06T06:33:28.699Z,18.79
2023-04-06T06:36:00.022Z,18.77
2023-04-06T06:38:34.252Z,18.79
2023-04-06T06:41:05.076Z,18.75
2023-04-06T06:43:37.452Z,18.73
2023-04-06T06:46:11.765Z,18.73
2023-04-06T06:48:44.428Z,18.71
2023-04-06T06:51:15.163Z,18.68
2023-04-06T06:53:45.327Z,18.68
2023-04-06T06:56:15.706Z,18.66
2023-04-06T06:58:47.593Z,18.64
2023-04-06T07:01:18.221Z,18.62
2023-04-06T07:03:49.115Z,18.63
2023-04-06T07:06:19.540Z,18.62
2023-04-06T07:08:49.961Z,18.61
2023-04-06T07:11:20.785Z,18.58
2023-04-06T07:13:51.300Z,18.56
2023-04-06T07:16:23.586Z,18.56
2023-04-06T07:18:54.073Z,18.55
2023-04-06T07:21:25.084Z,18.53
2023-04-06T07:23:55.465Z,18.53
2023-04-06T07:26:25.868Z,18.53
2023-04-06T07:28:56.380Z,18.50
2023-04-06T07:31:28.067Z,18.49
2023-04-06T07:33:58.880Z,18.49
2023-04-06T07:36:30.166Z,18.49
2023-04-06T07:39:00.405Z,18.46
2023-04-06T07:41:31.107Z,18.45
2023-04-06T07:44:02.034Z,18.45
2023-04-06T07:46:35.741Z,18.43
2023-04-06T07:49:06.782Z,18.42
2023-04-06T07:51:42.745Z,18.40
2023-04-06T07:54:14.355Z,18.39
2023-04-06T07:56:48.075Z,18.39
2023-04-06T07:59:19.103Z,18.40
2023-04-06T08:01:49.629Z,18.39
2023-04-06T08:04:20.080Z,18.40
2023-04-06T08:06:50.711Z,18.37
2023-04-06T08:09:21.134Z,18.36
2023-04-06T08:11:51.832Z,18.37
2023-04-06T08:14:22.684Z,18.36
2023-04-06T08:16:53.114Z,18.33
2023-04-06T08:19:23.590Z,18.33
2023-04-06T08:21:55.179Z,18.32
2023-04-06T08:24:25.433Z,18.31
2023-04-06T08:26:56.490Z,18.29
2023-04-06T08:29:27.332Z,18.29
2023-04-06T08:31:57.988Z,18.28
2023-04-06T08:34:29.196Z,18.27
2023-04-06T08:36:59.638Z,18.25
2023-04-06T08:39:33.241Z,18.25
2023-04-06T08:42:07.157Z,18.26
2023-04-06T08:44:37.645Z,18.24
2023-04-06T08:47:08.773Z,18.23
2023-04-06T08:49:43.631Z,18.23
2023-04-06T08:52:14.885Z,18.20
2023-04-06T08:54:46.031Z,18.20
2023-04-06T08:57:16.851Z,18.18
2023-04-06T08:59:48.408Z,18.18
2023-04-06T09:02:22.167Z,18.16
2023-04-06T09:04:57.436Z,18.15
2023-04-06T09:07:27.879Z,18.13
2023-04-06T09:09:58.293Z,18.13
2023-04-06T09:12:33.101Z,18.13
2023-04-06T09:15:04.610Z,18.11
2023-04-06T09:17:36.478Z,18.09
2023-04-06T09:20:07.563Z,18.09
2023-04-06T09:22:42.757Z,18.10
2023-04-06T09:25:23.982Z,18.08
2023-04-06T09:28:06.202Z,18.08
2023-04-06T09:30:38.407Z,18.05
2023-04-06T09:33:09.339Z,18.04
2023-04-06T09:35:39.631Z,18.04
2023-04-06T09:38:14.897Z,18.03
2023-04-06T09:41:01.443Z,18.03
2023-04-06T09:43:33.261Z,18.01
2023-04-06T09:46:06.065Z,18.00
2023-04-06T09:48:38.394Z,17.97
2023-04-06T09:51:12.798Z,17.98
2023-04-06T09:53:48.085Z,17.97
2023-04-06T09:56:22.861Z,17.97
2023-04-06T09:58:57.182Z,17.94
2023-04-06T10:01:33.136Z,17.92
2023-04-06T10:04:46.845Z,17.92
2023-04-06T10:07:18.233Z,17.90
2023-04-06T10:09:50.954Z,17.88
2023-04-06T10:12:22.095Z,17.90
2023-04-06T10:14:52.755Z,17.87
2023-04-06T10:17:23.355Z,17.87
2023-04-06T10:20:05.803Z,17.85
2023-04-06T10:22:53.264Z,17.85
2023-04-06T10:25:41.569Z,17.84
2023-04-06T10:28:14.989Z,17.83
2023-04-06T10:30:46.285Z,17.81
2023-04-06T10:33:22.884Z,17.81
2023-04-06T10:35:56.499Z,17.81
2023-04-06T10:38:43.193Z,17.79
2023-04-06T10:41:15.173Z,17.77
2023-04-06T10:43:47.453Z,17.76
2023-04-06T10:46:28.952Z,17.76
2023-04-06T10:49:00.234Z,17.76
2023-04-06T10:51:32.146Z,17.74
2023-04-06T10:54:04.016Z,17.74
2023-04-06T10:56:39.618Z,17.72
2023-04-06T10:59:10.302Z,17.69
2023-04-06T11:01:41.158Z,17.69
2023-04-06T11:04:15.830Z,17.67
2023-04-06T11:06:51.436Z,17.66
2023-04-06T11:09:33.876Z,17.65
2023-04-06T11:12:04.333Z,17.65
2023-04-06T11:14:34.758Z,17.64
2023-04-06T11:17:06.337Z,17.63
2023-04-06T11:19:37.864Z,17.63
2023-04-06T11:22:12.273Z,17.61
2023-04-06T11:24:42.689Z,17.61
2023-04-06T11:27:13.561Z,17.59
2023-04-06T11:29:44.133Z,17.59
2023-04-06T11:32:14.808Z,17.58
2023-04-06T11:34:46.165Z,17.57
2023-04-06T11:37:16.983Z,17.56
2023-04-06T11:39:55.332Z,17.57
2023-04-06T11:42:31.952Z,17.55
2023-04-06T11:45:06.645Z,17.52
2023-04-06T11:47:40.189Z,17.53
2023-04-06T11:50:15.730Z,17.51
2023-04-06T11:52:46.489Z,17.51
2023-04-06T11:55:21.735Z,17.50
2023-04-06T11:57:52.465Z,17.50
2023-04-06T12:00:24.793Z,17.49
2023-04-06T12:02:55.235Z,17.48
2023-04-06T12:05:26.419Z,17.46
2023-04-06T12:07:58.095Z,17.45
2023-04-06T12:10:30.486Z,17.47
2023-04-06T12:13:01.233Z,17.45
2023-04-06T12:15:31.854Z,17.43
2023-04-06T12:18:02.606Z,17.43
2023-04-06T12:20:34.323Z,17.43
2023-04-06T12:23:04.831Z,17.41
2023-04-06T12:25:36.166Z,17.40
2023-04-06T12:28:06.405Z,17.40
2023-04-06T12:30:38.428Z,17.39
2023-04-06T12:33:09.290Z,17.38
2023-04-06T12:35:41.294Z,17.38
2023-04-06T12:38:11.880Z,17.37
2023-04-06T12:40:42.897Z,17.36
2023-04-06T12:43:16.691Z,17.34
2023-04-06T12:45:47.666Z,17.34
2023-04-06T12:48:18.358Z,17.33
2023-04-06T12:51:04.900Z,17.32
2023-04-06T12:53:37.801Z,17.31
2023-04-06T12:56:19.767Z,17.30
2023-04-06T12:58:50.476Z,17.30
2023-04-06T13:01:21.350Z,17.28
2023-04-06T13:03:52.407Z,17.28
2023-04-06T13:06:22.939Z,17.27
2023-04-06T13:08:56.247Z,17.27
2023-04-06T13:11:29.053Z,17.27
2023-04-06T13:14:00.362Z,17.26
2023-04-06T13:16:31.678Z,17.25
2023-04-06T13:19:02.172Z,17.24
2023-04-06T13:21:33.042Z,17.24
2023-04-06T13:24:03.642Z,17.22
2023-04-06T13:26:34.708Z,17.21
2023-04-06T13:29:05.227Z,17.22
2023-04-06T13:31:36.313Z,17.19
2023-04-06T13:34:06.608Z,17.20
2023-04-06T13:36:37.352Z,17.19
2023-04-06T13:39:07.835Z,17.18
2023-04-06T13:41:38.271Z,17.16
2023-04-06T13:44:08.775Z,17.15
2023-04-06T13:46:39.791Z,17.14
2023-04-06T13:49:10.218Z,17.11
2023-04-06T13:51:40.690Z,17.12
2023-04-06T13:54:11.211Z,17.13
2023-04-06T13:56:41.914Z,17.12
2023-04-06T13:59:12.396Z,17.11
2023-04-06T14:01:43.519Z,17.11
2023-04-06T14:04:16.898Z,17.10
2023-04-06T14:06:49.078Z,17.10
2023-04-06T14:09:19.521Z,17.09
2023-04-06T14:11:50.052Z,17.08
2023-04-06T14:14:20.930Z,17.07
2023-04-06T14:16:51.508Z,17.06
2023-04-06T14:19:22.216Z,17.07
2023-04-06T14:21:53.186Z,17.04
2023-04-06T14:24:24.066Z,17.03
2023-04-06T14:26:55.257Z,17.01
2023-04-06T14:29:25.731Z,17.02
2023-04-06T14:32:02.181Z,17.03
2023-04-06T14:34:32.842Z,17.00
2023-04-06T14:37:03.394Z,17.00
2023-04-06T14:39:33.851Z,16.99
2023-04-06T14:42:05.357Z,16.98
2023-04-06T14:44:39.084Z,16.97
2023-04-06T14:47:09.517Z,16.97
2023-04-06T14:49:41.634Z,16.96
2023-04-06T14:52:12.123Z,16.97
2023-04-06T14:54:43.263Z,16.95
2023-04-06T14:57:13.707Z,16.93
2023-04-06T14:59:44.426Z,16.92
2023-04-06T15:02:15.063Z,16.93
2023-04-06T15:04:45.794Z,16.92
2023-04-06T15:07:16.205Z,16.91
2023-04-06T15:09:46.591Z,16.90
2023-04-06T15:12:17.400Z,16.90
2023-04-06T15:14:48.307Z,16.88
2023-04-06T15:17:18.771Z,16.88
2023-04-06T15:19:48.994Z,16.87
2023-04-06T15:22:19.263Z,16.86
2023-04-06T15:24:50.205Z,16.85
2023-04-06T15:27:20.566Z,16.85
2023-04-06T15:29:51.248Z,16.83
2023-04-06T15:32:21.686Z,16.82
2023-04-06T15:34:53.072Z,16.83
2023-04-06T15:37:23.510Z,16.80
2023-04-06T15:39:53.944Z,16.80
2023-04-06T15:42:25.289Z,16.79
2023-04-06T15:44:55.790Z,16.77
2023-04-06T15:47:26.235Z,16.77
2023-04-06T15:49:57.336Z,16.76
2023-04-06T15:52:27.793Z,16.75
2023-04-06T15:54:58.945Z,16.75
2023-04-06T15:57:29.551Z,16.74
2023-04-06T16:00:01.298Z,16.73
2023-04-06T16:02:32.231Z,16.72
2023-04-06T16:05:05.315Z,16.71
2023-04-06T16:07:36.986Z,16.70
2023-04-06T16:10:08.641Z,16.69
2023-04-06T16:12:39.182Z,16.68
2023-04-06T16:15:12.295Z,16.67
2023-04-06T16:17:45.168Z,16.66
2023-04-06T16:20:17.537Z,16.64
2023-04-06T16:22:49.224Z,16.65
2023-04-06T16:25:19.669Z,16.64
2023-04-06T16:27:50.142Z,16.63
2023-04-06T16:30:20.858Z,16.62
2023-04-06T16:32:53.261Z,16.61
2023-04-06T16:35:24.619Z,16.61
2023-04-06T16:37:57.652Z,16.60
2023-04-06T16:40:28.173Z,16.59
2023-04-06T16:42:58.638Z,16.59
2023-04-06T16:45:29.393Z,16.58
2023-04-06T16:47:59.790Z,16.57
2023-04-06T16:50:30.447Z,16.56
2023-04-06T16:53:00.827Z,16.55
2023-04-06T16:55:31.322Z,16.56
2023-04-06T16:58:01.866Z,16.54
2023-04-06T17:00:32.237Z,16.53
2023-04-06T17:03:03.064Z,16.50
2023-04-06T17:05:36.178Z,16.51
2023-04-06T17:08:07.441Z,16.52
2023-04-06T17:10:46.448Z,16.50
2023-04-06T17:13:28.335Z,16.49
2023-04-06T17:15:58.789Z,16.48
2023-04-06T17:18:31.712Z,16.47
2023-04-06T17:21:06.468Z,16.47
2023-04-06T17:23:36.817Z,16.45
2023-04-06T17:26:08.863Z,16.46
2023-04-06T17:28:39.780Z,16.45
2023-04-06T17:31:12.020Z,16.45
2023-04-06T17:33:44.263Z,16.43
2023-04-06T17:36:15.097Z,16.43
2023-04-06T17:38:47.275Z,16.41
2023-04-06T17:41:18.181Z,16.40
2023-04-06T17:43:49.717Z,16.40
2023-04-06T17:46:21.958Z,16.40
2023-04-06T17:48:53.445Z,16.39
2023-04-06T17:51:23.940Z,16.40
2023-04-06T17:53:55.392Z,16.36
2023-04-06T17:56:25.877Z,16.37
2023-04-06T17:59:00.869Z,16.36
2023-04-06T18:01:33.054Z,16.36
2023-04-06T18:04:03.507Z,16.34
2023-04-06T18:06:34.170Z,16.31
2023-04-06T18:09:05.265Z,16.33
2023-04-06T18:11:35.903Z,16.31
2023-04-06T18:14:12.690Z,16.29
2023-04-06T18:16:43.876Z,16.29
2023-04-06T18:19:15.148Z,16.30
2023-04-06T18:21:45.711Z,16.28
2023-04-06T18:24:27.141Z,16.29
2023-04-06T18:27:04.118Z,16.28
2023-04-06T18:29:35.675Z,16.26
2023-04-06T18:32:07.520Z,16.26
2023-04-06T18:34:37.990Z,16.26
2023-04-06T18:37:09.848Z,16.26
2023-04-06T18:39:40.275Z,16.25
2023-04-06T18:42:11.384Z,16.23
2023-04-06T18:44:41.700Z,16.22
2023-04-06T18:47:12.131Z,16.22
2023-04-06T18:49:43.096Z,16.21
2023-04-06T18:52:14.427Z,16.21
2023-04-06T18:54:44.869Z,16.22
2023-04-06T18:57:15.362Z,16.20
2023-04-06T18:59:46.153Z,16.20
2023-04-06T19:02:17.884Z,16.17
2023-04-06T19:04:48.479Z,16.17
2023-04-06T19:07:18.897Z,16.18
2023-04-06T19:09:49.325Z,16.17
2023-04-06T19:12:19.739Z,16.16
2023-04-06T19:14:53.409Z,16.16
2023-04-06T19:17:24.533Z,16.16
2023-04-06T19:19:55.599Z,16.13
2023-04-06T19:22:26.915Z,16.14
2023-04-06T19:24:57.339Z,16.12
2023-04-06T19:27:27.851Z,16.11
2023-04-06T19:29:58.532Z,16.11
2023-04-06T19:32:31.838Z,16.11
2023-04-06T19:35:04.211Z,16.09
2023-04-06T19:37:39.361Z,16.10
2023-04-06T19:40:12.059Z,16.09
2023-04-06T19:42:42.857Z,16.08
2023-04-06T19:45:13.418Z,16.08
2023-04-06T19:47:43.970Z,16.07
2023-04-06T19:50:14.212Z,16.07
2023-04-06T19:52:45.488Z,16.05
2023-04-06T19:55:16.109Z,16.04
2023-04-06T19:57:46.517Z,16.03
2023-04-06T20:00:17.794Z,16.02
2023-04-06T20:02:48.438Z,16.01
2023-04-06T20:05:19.507Z,16.01
2023-04-06T20:07:51.489Z,15.99
2023-04-06T20:10:21.874Z,15.99
2023-04-06T20:12:52.430Z,15.99
2023-04-06T20:15:24.540Z,15.97
2023-04-06T20:17:55.273Z,15.97
2023-04-06T20:20:26.045Z,15.96
2023-04-06T20:22:56.420Z,15.94
2023-04-06T20:25:28.157Z,15.96
2023-04-06T20:27:58.854Z,15.94
2023-04-06T20:30:29.372Z,15.94
2023-04-06T20:32:59.913Z,15.93
2023-04-06T20:35:30.451Z,15.93
2023-04-06T20:38:01.312Z,15.92
2023-04-06T20:40:32.639Z,15.90
2023-04-06T20:43:05.081Z,15.89
2023-04-06T20:45:39.906Z,15.89
2023-04-06T20:48:10.423Z,15.89
2023-04-06T20:50:41.027Z,15.86
2023-04-06T20:53:11.523Z,15.87
2023-04-06T20:55:45.631Z,15.87
2023-04-06T20:58:22.253Z,15.86
2023-04-06T21:00:54.466Z,15.96
2023-04-06T21:03:26.557Z,16.09
2023-04-06T21:06:03.568Z,16.17
2023-04-06T21:08:34.681Z,16.24
2023-04-06T21:11:05.888Z,16.31
2023-04-06T21:13:37.266Z,16.37
2023-04-06T21:16:08.612Z,16.45
2023-04-06T21:18:42.504Z,16.51
2023-04-06T21:21:12.958Z,16.53
2023-04-06T21:23:43.458Z,16.56
2023-04-06T21:26:17.006Z,16.58
2023-04-06T21:28:48.339Z,16.60
2023-04-06T21:31:21.249Z,16.66
2023-04-06T21:33:51.828Z,16.72
2023-04-06T21:36:22.433Z,16.86
2023-04-06T21:38:53.415Z,16.79
2023-04-06T21:41:23.775Z,16.72
2023-04-06T21:43:57.408Z,16.65
2023-04-06T21:46:28.727Z,16.68
2023-04-06T21:48:59.380Z,16.69
2023-04-06T21:51:30.554Z,16.70
2023-04-06T21:54:00.850Z,16.75
2023-04-06T21:56:32.057Z,16.80
2023-04-06T21:59:02.339Z,16.87
2023-04-06T22:01:32.764Z,16.88
2023-04-06T22:04:03.819Z,16.92
2023-04-06T22:06:34.516Z,17.02
2023-04-06T22:09:06.988Z,17.09
2023-04-06T22:11:37.531Z,17.13
2023-04-06T22:14:08.483Z,17.15
2023-04-06T22:16:38.839Z,17.20
2023-04-06T22:19:09.546Z,17.21
2023-04-06T22:21:40.677Z,17.01
2023-04-06T22:24:11.424Z,16.86
2023-04-06T22:26:42.751Z,16.84
2023-04-06T22:29:13.164Z,16.84
2023-04-06T22:31:46.082Z,16.96
2023-04-06T22:34:17.245Z,16.95
2023-04-06T22:36:47.582Z,17.00
2023-04-06T22:39:18.212Z,17.08
2023-04-06T22:41:49.620Z,17.15
2023-04-06T22:44:21.200Z,17.09
2023-04-06T22:46:55.881Z,17.12
2023-04-06T22:49:26.522Z,17.14
2023-04-06T22:51:56.944Z,17.12
2023-04-06T22:54:27.482Z,17.15
2023-04-06T22:56:58.225Z,17.32
2023-04-06T22:59:28.828Z,17.27
2023-04-06T23:01:59.910Z,17.29
2023-04-06T23:04:34.639Z,17.32
2023-04-06T23:07:05.468Z,17.46
2023-04-06T23:09:35.965Z,17.51
2023-04-06T23:12:06.929Z,17.45
2023-04-06T23:14:37.730Z,17.47
2023-04-06T23:17:08.452Z,17.48
2023-04-06T23:19:39.741Z,17.54
2023-04-06T23:22:10.075Z,17.61
2023-04-06T23:24:40.580Z,17.58
2023-04-06T23:27:11.465Z,17.59
2023-04-06T23:29:44.304Z,17.60
2023-04-06T23:32:19.097Z,17.60
2023-04-06T23:34:49.843Z,17.63
2023-04-06T23:37:23.491Z,17.68
2023-04-06T23:39:53.885Z,17.66
2023-04-06T23:42:28.812Z,17.71
2023-04-06T23:44:59.617Z,17.74
2023-04-06T23:47:31.292Z,17.66
2023-04-06T23:50:01.862Z,17.72
2023-04-06T23:52:35.578Z,17.76
2023-04-06T23:55:06.830Z,17.82
2023-04-06T23:57:37.643Z,17.84
